Time;durP1;ratioP1;P1;durP2;ratioP2;P2;SDS_P1;SDS_P2;PMS_P1;PMS_P2;Temp;Humidity;BMP_temperature;BMP_pressure;BME280_temperature;BME280_humidity;BME280_pressure;Samples;Min_cycle;Max_cycle;Signal;HPM_P1;HPM_P2
2022/03/28 00:00:44;;;;;;;33.45;17.98;;;;;;;;;;5006752;28;20030;-72
2022/03/28 00:03:11;;;;;;;28.00;18.02;;;;;;;;;;5003715;28;20380;-73
2022/03/28 00:05:38;;;;;;;30.52;18.52;;;;;;;;;;5002289;28;20053;-72
2022/03/28 00:08:05;;;;;;;27.90;17.83;;;;;;;;;;5001604;28;20107;-72
2022/03/28 00:10:31;;;;;;;25.00;16.30;;;;;;;;;;5004984;28;20065;-71
2022/03/28 00:12:58;;;;;;;29.30;19.10;;;;;;;;;;5003730;28;20049;-72
2022/03/28 00:15:25;;;;;;;27.75;17.40;;;;;;;;;;5003669;28;20096;-72
2022/03/28 00:17:51;;;;;;;27.35;18.10;;;;;;;;;;5007581;28;20121;-72
2022/03/28 00:20:19;;;;;;;28.48;16.23;;;;;;;;;;5012582;28;20022;-72
2022/03/28 00:22:46;;;;;;;26.05;17.05;;;;;;;;;;5003551;28;20025;-72
2022/03/28 00:25:12;;;;;;;27.48;16.73;;;;;;;;;;5006946;28;20026;-72
2022/03/28 00:27:39;;;;;;;27.33;17.02;;;;;;;;;;5002698;28;20037;-68
2022/03/28 00:30:06;;;;;;;28.88;17.58;;;;;;;;;;5010073;28;20058;-73
2022/03/28 00:32:33;;;;;;;27.85;16.77;;;;;;;;;;4994762;28;20022;-73
2022/03/28 00:35:00;;;;;;;30.55;18.75;;;;;;;;;;5007470;28;20033;-72
2022/03/28 00:37:27;;;;;;;29.20;17.10;;;;;;;;;;5000759;28;20041;-71
2022/03/28 00:39:53;;;;;;;27.98;18.23;;;;;;;;;;4999523;28;20030;-70
2022/03/28 00:42:20;;;;;;;29.88;17.20;;;;;;;;;;4996065;28;20022;-72
2022/03/28 00:44:46;;;;;;;31.27;18.80;;;;;;;;;;5006148;28;20022;-73
2022/03/28 00:47:14;;;;;;;30.13;16.15;;;;;;;;;;5001794;28;20525;-73
2022/03/28 00:49:40;;;;;;;29.02;18.70;;;;;;;;;;5003651;28;20705;-72
2022/03/28 00:52:08;;;;;;;33.17;17.92;;;;;;;;;;5000479;28;20044;-73
2022/03/28 00:54:34;;;;;;;38.72;19.13;;;;;;;;;;4997697;28;20374;-70
2022/03/28 00:57:00;;;;;;;28.70;16.98;;;;;;;;;;5001945;28;20033;-70
2022/03/28 00:59:26;;;;;;;30.45;17.50;;;;;;;;;;4998473;28;20413;-70
2022/03/28 01:01:52;;;;;;;31.70;18.02;;;;;;;;;;5007626;28;20053;-70
2022/03/28 01:04:18;;;;;;;29.35;18.42;;;;;;;;;;5003771;28;20037;-71
2022/03/28 01:06:44;;;;;;;28.00;17.70;;;;;;;;;;4999305;28;20034;-72
2022/03/28 01:09:10;;;;;;;29.40;19.10;;;;;;;;;;5005762;28;20033;-71
2022/03/28 01:11:36;;;;;;;31.30;18.35;;;;;;;;;;4998241;28;20065;-72
2022/03/28 01:14:03;;;;;;;31.00;18.50;;;;;;;;;;5006801;28;20447;-69
2022/03/28 01:18:05;;;;;;;33.40;19.45;;;;;;;;;;5006728;28;20033;-70
2022/03/28 01:19:23;;;;;;;32.03;18.60;;;;;;;;;;5004828;28;20038;-70
2022/03/28 01:21:49;;;;;;;32.95;19.27;;;;;;;;;;5002692;28;20447;-71
2022/03/28 01:24:16;;;;;;;33.88;20.17;;;;;;;;;;5006904;28;20449;-70
2022/03/28 01:26:43;;;;;;;32.47;19.75;;;;;;;;;;5007902;28;20034;-71
2022/03/28 01:29:09;;;;;;;33.72;19.52;;;;;;;;;;5004242;28;20125;-71
2022/03/28 01:31:39;;;;;;;30.08;18.70;;;;;;;;;;4999416;28;20053;-68
2022/03/28 01:34:05;;;;;;;32.78;18.83;;;;;;;;;;5004963;28;20103;-70
2022/03/28 01:36:32;;;;;;;32.03;18.60;;;;;;;;;;5002647;28;20034;-71
2022/03/28 01:38:58;;;;;;;26.50;16.55;;;;;;;;;;4999741;28;20708;-71
2022/03/28 01:41:24;;;;;;;28.35;17.77;;;;;;;;;;4996611;28;20034;-72
2022/03/28 01:43:50;;;;;;;30.83;18.42;;;;;;;;;;5008006;28;20038;-69
2022/03/28 01:46:16;;;;;;;31.60;19.33;;;;;;;;;;5006470;28;20026;-70
2022/03/28 01:48:42;;;;;;;31.25;19.00;;;;;;;;;;5011042;28;20100;-71
2022/03/28 01:51:08;;;;;;;30.75;18.67;;;;;;;;;;5008866;28;20031;-71
2022/03/28 01:53:34;;;;;;;34.17;19.73;;;;;;;;;;5007425;28;20465;-70
2022/03/28 01:56:00;;;;;;;30.27;18.98;;;;;;;;;;5007767;28;20440;-71
2022/03/28 01:58:26;;;;;;;33.28;20.02;;;;;;;;;;5006803;28;20087;-69
2022/03/28 02:00:52;;;;;;;32.42;18.63;;;;;;;;;;5003954;28;20117;-71
2022/03/28 02:03:19;;;;;;;35.92;19.65;;;;;;;;;;5008176;28;20030;-71
2022/03/28 02:05:45;;;;;;;31.70;19.00;;;;;;;;;;5008744;28;20045;-70
2022/03/28 02:08:11;;;;;;;35.58;21.23;;;;;;;;;;5004449;28;20044;-70
2022/03/28 02:10:37;;;;;;;38.22;21.83;;;;;;;;;;5003184;28;20056;-70
2022/03/28 02:13:04;;;;;;;39.65;20.75;;;;;;;;;;5006527;28;20545;-70
2022/03/28 02:15:30;;;;;;;36.95;21.15;;;;;;;;;;5002247;28;20133;-70
2022/03/28 02:17:56;;;;;;;39.00;20.02;;;;;;;;;;5012307;28;20114;-71
2022/03/28 02:20:22;;;;;;;35.83;19.77;;;;;;;;;;5003539;28;20026;-71
2022/03/28 02:22:48;;;;;;;36.72;19.75;;;;;;;;;;5008528;28;20412;-71
2022/03/28 02:25:15;;;;;;;36.35;19.55;;;;;;;;;;5007313;28;20392;-70
2022/03/28 02:27:41;;;;;;;31.70;18.30;;;;;;;;;;4998077;28;20327;-70
2022/03/28 02:30:08;;;;;;;37.63;20.35;;;;;;;;;;5000656;28;20056;-69
2022/03/28 02:32:35;;;;;;;34.40;19.85;;;;;;;;;;5007245;28;20166;-72
2022/03/28 02:35:01;;;;;;;34.45;21.23;;;;;;;;;;5009269;28;20022;-70
2022/03/28 02:37:28;;;;;;;28.42;18.50;;;;;;;;;;5003959;28;20041;-70
2022/03/28 02:39:54;;;;;;;31.48;16.92;;;;;;;;;;5005323;28;20034;-71
2022/03/28 02:42:24;;;;;;;28.00;16.33;;;;;;;;;;5000464;28;20037;-71
2022/03/28 02:44:51;;;;;;;30.25;18.92;;;;;;;;;;5004802;28;20030;-70
2022/03/28 02:47:18;;;;;;;30.85;16.80;;;;;;;;;;5011545;28;20477;-71
2022/03/28 02:49:44;;;;;;;29.25;17.30;;;;;;;;;;5004777;28;20091;-70
2022/03/28 02:52:10;;;;;;;27.23;17.08;;;;;;;;;;4999850;28;20061;-70
2022/03/28 02:54:36;;;;;;;30.20;18.83;;;;;;;;;;5005678;28;20025;-70
2022/03/28 02:57:02;;;;;;;34.75;19.05;;;;;;;;;;5005018;28;20085;-67
2022/03/28 02:59:28;;;;;;;33.78;19.55;;;;;;;;;;5007709;28;20030;-71
2022/03/28 03:01:55;;;;;;;33.78;18.27;;;;;;;;;;4998477;28;20380;-71
2022/03/28 03:04:21;;;;;;;32.67;18.65;;;;;;;;;;5000631;28;20093;-71
2022/03/28 03:06:47;;;;;;;33.08;19.42;;;;;;;;;;5002907;28;20050;-70
2022/03/28 03:09:13;;;;;;;32.78;20.27;;;;;;;;;;5005778;28;20512;-73
2022/03/28 03:11:40;;;;;;;31.58;18.83;;;;;;;;;;5003443;28;20065;-70
2022/03/28 03:14:06;;;;;;;33.78;17.65;;;;;;;;;;5002663;28;20024;-71
2022/03/28 03:16:32;;;;;;;30.50;18.80;;;;;;;;;;5013297;28;20038;-71
2022/03/28 03:18:59;;;;;;;36.45;18.80;;;;;;;;;;5004886;28;20041;-71
2022/03/28 03:21:25;;;;;;;32.28;18.60;;;;;;;;;;5002864;28;20026;-71
2022/03/28 03:23:51;;;;;;;38.13;19.00;;;;;;;;;;5004201;28;20022;-71
2022/03/28 03:26:17;;;;;;;30.88;19.58;;;;;;;;;;4994508;28;20062;-70
2022/03/28 03:28:43;;;;;;;34.13;19.02;;;;;;;;;;5006809;28;20117;-71
2022/03/28 03:31:10;;;;;;;36.28;18.38;;;;;;;;;;5003625;28;20038;-70
2022/03/28 03:33:36;;;;;;;37.10;21.08;;;;;;;;;;5002563;28;20022;-69
2022/03/28 03:36:02;;;;;;;36.83;21.27;;;;;;;;;;5001215;28;20054;-71
2022/03/28 03:38:28;;;;;;;36.97;19.70;;;;;;;;;;4999680;28;20120;-71
2022/03/28 03:40:54;;;;;;;33.90;19.33;;;;;;;;;;5000289;28;20032;-69
2022/03/28 03:43:22;;;;;;;32.60;19.05;;;;;;;;;;5003926;28;20065;-69
2022/03/28 03:45:48;;;;;;;30.98;18.92;;;;;;;;;;5002918;28;20519;-70
2022/03/28 03:48:14;;;;;;;36.90;19.27;;;;;;;;;;5003567;28;20064;-69
2022/03/28 03:50:41;;;;;;;36.00;19.65;;;;;;;;;;5000213;28;20026;-69
2022/03/28 03:53:08;;;;;;;34.00;20.10;;;;;;;;;;5003638;28;20030;-70
2022/03/28 03:55:34;;;;;;;40.85;20.40;;;;;;;;;;5001649;28;20037;-70
2022/03/28 03:58:00;;;;;;;34.95;20.33;;;;;;;;;;5005344;28;20037;-69
2022/03/28 04:00:26;;;;;;;37.80;20.50;;;;;;;;;;5000394;28;20034;-70
2022/03/28 04:02:52;;;;;;;41.67;22.52;;;;;;;;;;5004879;28;20480;-69
2022/03/28 04:05:18;;;;;;;42.75;21.50;;;;;;;;;;5003573;28;20522;-71
2022/03/28 04:07:44;;;;;;;42.22;22.45;;;;;;;;;;5005984;28;20112;-70
2022/03/28 04:10:10;;;;;;;41.72;21.30;;;;;;;;;;5006521;28;20570;-69
2022/03/28 04:12:37;;;;;;;39.85;22.65;;;;;;;;;;5004487;28;21591;-71
2022/03/28 04:15:03;;;;;;;45.47;22.52;;;;;;;;;;5002737;28;20041;-70
2022/03/28 04:17:30;;;;;;;46.45;22.77;;;;;;;;;;5006116;28;20325;-70
2022/03/28 04:19:57;;;;;;;49.58;24.17;;;;;;;;;;5006454;28;20586;-68
2022/03/28 04:22:23;;;;;;;75.28;27.02;;;;;;;;;;5013315;28;20057;-67
2022/03/28 04:24:49;;;;;;;278.73;37.38;;;;;;;;;;5007437;28;20025;-70
2022/03/28 04:27:15;;;;;;;229.48;38.38;;;;;;;;;;5004802;28;20057;-70
2022/03/28 04:29:41;;;;;;;262.13;36.17;;;;;;;;;;5005125;28;20037;-69
2022/03/28 04:32:08;;;;;;;307.52;45.67;;;;;;;;;;5005129;28;20121;-70
2022/03/28 04:34:34;;;;;;;164.75;31.50;;;;;;;;;;5021704;28;20030;-69
2022/03/28 04:37:00;;;;;;;53.88;23.65;;;;;;;;;;5006186;28;20049;-70
2022/03/28 04:39:26;;;;;;;52.58;22.52;;;;;;;;;;5005004;28;20040;-70
2022/03/28 04:41:52;;;;;;;54.10;24.58;;;;;;;;;;5002687;28;20025;-71
2022/03/28 04:44:18;;;;;;;47.80;25.80;;;;;;;;;;5000130;28;20033;-70
2022/03/28 04:46:44;;;;;;;68.78;22.85;;;;;;;;;;4998402;28;20478;-70
2022/03/28 04:49:14;;;;;;;73.47;25.58;;;;;;;;;;5002683;28;20109;-70
2022/03/28 04:51:40;;;;;;;54.95;24.67;;;;;;;;;;5001826;28;20475;-69
2022/03/28 04:54:06;;;;;;;60.25;25.25;;;;;;;;;;5013380;28;20534;-70
2022/03/28 04:56:34;;;;;;;61.25;25.55;;;;;;;;;;5006065;28;20045;-70
2022/03/28 04:59:02;;;;;;;51.03;24.75;;;;;;;;;;4998620;28;20058;-70
2022/03/28 05:01:28;;;;;;;52.83;22.63;;;;;;;;;;4995786;28;20037;-70
2022/03/28 05:03:54;;;;;;;47.13;22.05;;;;;;;;;;5014048;28;20637;-70
2022/03/28 05:06:20;;;;;;;45.88;22.75;;;;;;;;;;5001573;28;20044;-68
2022/03/28 05:08:46;;;;;;;60.08;25.33;;;;;;;;;;5007048;28;20036;-71
2022/03/28 05:11:12;;;;;;;182.88;32.35;;;;;;;;;;5003554;28;20053;-69
2022/03/28 05:13:38;;;;;;;160.23;30.08;;;;;;;;;;4999244;28;20058;-70
2022/03/28 05:16:04;;;;;;;58.45;23.83;;;;;;;;;;5000495;28;20097;-70
2022/03/28 05:18:31;;;;;;;57.70;22.40;;;;;;;;;;5006138;28;20413;-70
2022/03/28 05:20:57;;;;;;;59.67;22.38;;;;;;;;;;5001851;28;20033;-70
2022/03/28 05:23:23;;;;;;;41.00;20.55;;;;;;;;;;5005943;28;20042;-69
2022/03/28 05:25:49;;;;;;;40.80;20.60;;;;;;;;;;4998333;28;20520;-70
2022/03/28 05:28:15;;;;;;;41.83;19.60;;;;;;;;;;5005358;28;20037;-71
2022/03/28 05:30:42;;;;;;;49.97;20.40;;;;;;;;;;4999427;28;20083;-71
2022/03/28 05:33:08;;;;;;;35.35;17.40;;;;;;;;;;5003669;28;20034;-70
2022/03/28 05:35:34;;;;;;;34.70;18.95;;;;;;;;;;5008421;28;20033;-70
2022/03/28 05:38:01;;;;;;;61.53;20.42;;;;;;;;;;5001775;28;20389;-69
2022/03/28 05:40:27;;;;;;;65.18;20.70;;;;;;;;;;5001773;28;20088;-71
2022/03/28 05:42:53;;;;;;;47.95;20.27;;;;;;;;;;4997738;28;20021;-71
2022/03/28 05:45:19;;;;;;;33.83;17.08;;;;;;;;;;4998745;28;20030;-71
2022/03/28 05:47:45;;;;;;;35.88;17.52;;;;;;;;;;5004990;28;20026;-70
2022/03/28 05:50:11;;;;;;;29.83;15.00;;;;;;;;;;4996613;28;21119;-70
2022/03/28 05:52:37;;;;;;;45.33;16.35;;;;;;;;;;4998501;28;20026;-71
2022/03/28 05:55:04;;;;;;;32.50;13.55;;;;;;;;;;5002323;28;20041;-70
2022/03/28 05:57:30;;;;;;;29.15;14.45;;;;;;;;;;4997672;28;20026;-70
2022/03/28 05:59:56;;;;;;;22.38;13.30;;;;;;;;;;5002702;28;20030;-69
2022/03/28 06:02:22;;;;;;;27.88;13.35;;;;;;;;;;5007868;28;20459;-71
2022/03/28 06:04:48;;;;;;;20.30;11.07;;;;;;;;;;5005562;28;20304;-70
2022/03/28 06:07:14;;;;;;;23.52;11.45;;;;;;;;;;5004567;28;20432;-71
2022/03/28 06:09:41;;;;;;;49.88;13.57;;;;;;;;;;5002105;28;20030;-71
2022/03/28 06:12:08;;;;;;;82.18;14.35;;;;;;;;;;5002217;28;20554;-71
2022/03/28 06:14:34;;;;;;;89.43;15.60;;;;;;;;;;5002806;28;20053;-70
2022/03/28 06:17:00;;;;;;;27.38;11.30;;;;;;;;;;4995859;28;20519;-71
2022/03/28 06:19:26;;;;;;;26.42;11.98;;;;;;;;;;4998621;28;20034;-70
2022/03/28 06:21:52;;;;;;;17.30;10.25;;;;;;;;;;5002722;28;20040;-71
2022/03/28 06:24:18;;;;;;;17.35;10.70;;;;;;;;;;5001929;28;20038;-72
2022/03/28 06:26:44;;;;;;;21.02;11.80;;;;;;;;;;5001595;28;20508;-69
2022/03/28 06:29:10;;;;;;;21.23;11.40;;;;;;;;;;5006207;28;20030;-70
2022/03/28 06:31:37;;;;;;;20.10;11.32;;;;;;;;;;5004472;28;20073;-71
2022/03/28 06:34:03;;;;;;;21.13;12.15;;;;;;;;;;5000520;28;20025;-70
2022/03/28 06:36:32;;;;;;;18.50;11.18;;;;;;;;;;5008477;28;20380;-70
2022/03/28 06:38:58;;;;;;;18.17;11.77;;;;;;;;;;5003420;28;20075;-70
2022/03/28 06:41:24;;;;;;;19.33;12.50;;;;;;;;;;5006365;28;20598;-70
2022/03/28 06:43:50;;;;;;;19.77;11.90;;;;;;;;;;5001307;28;20109;-69
2022/03/28 06:46:16;;;;;;;22.40;12.25;;;;;;;;;;5006975;28;20022;-68
2022/03/28 06:48:43;;;;;;;19.80;12.68;;;;;;;;;;5006437;28;20499;-68
2022/03/28 06:51:09;;;;;;;24.38;13.18;;;;;;;;;;5007921;28;20463;-69
2022/03/28 06:53:35;;;;;;;24.50;13.98;;;;;;;;;;5003054;28;20029;-69
2022/03/28 06:56:01;;;;;;;23.27;13.40;;;;;;;;;;5005416;28;20113;-69
2022/03/28 06:58:27;;;;;;;20.73;13.07;;;;;;;;;;5007122;28;20042;-69
2022/03/28 07:00:53;;;;;;;19.50;12.73;;;;;;;;;;5003922;28;20120;-70
2022/03/28 07:03:19;;;;;;;25.38;14.13;;;;;;;;;;5007192;28;20459;-69
2022/03/28 07:05:45;;;;;;;15.80;11.35;;;;;;;;;;5006295;28;20048;-69
2022/03/28 07:08:13;;;;;;;17.15;11.13;;;;;;;;;;5000347;28;20053;-70
2022/03/28 07:10:39;;;;;;;15.90;10.60;;;;;;;;;;5004193;28;20502;-68
2022/03/28 07:13:05;;;;;;;18.67;11.70;;;;;;;;;;5009670;28;20038;-68
2022/03/28 07:15:31;;;;;;;14.85;10.50;;;;;;;;;;5004478;28;20418;-68
2022/03/28 07:18:02;;;;;;;17.50;11.48;;;;;;;;;;5005287;28;20380;-69
2022/03/28 07:20:31;;;;;;;17.02;10.95;;;;;;;;;;5010169;28;20499;-69
2022/03/28 07:22:58;;;;;;;15.98;11.13;;;;;;;;;;5006034;28;20463;-70
2022/03/28 07:25:25;;;;;;;16.13;10.70;;;;;;;;;;5002894;28;20503;-70
2022/03/28 07:27:52;;;;;;;18.60;12.00;;;;;;;;;;5002361;28;20022;-68
2022/03/28 07:30:19;;;;;;;18.65;12.32;;;;;;;;;;5019243;28;20065;-69
2022/03/28 07:32:46;;;;;;;16.27;11.52;;;;;;;;;;5003433;28;20042;-69
2022/03/28 07:35:14;;;;;;;18.52;12.52;;;;;;;;;;5001798;28;20499;-68
2022/03/28 07:37:40;;;;;;;19.10;12.20;;;;;;;;;;5005880;28;20025;-69
2022/03/28 07:40:08;;;;;;;20.55;12.30;;;;;;;;;;5004229;28;20391;-68
2022/03/28 07:42:34;;;;;;;20.80;14.07;;;;;;;;;;5012442;28;20030;-69
2022/03/28 07:45:01;;;;;;;18.60;12.57;;;;;;;;;;5009631;28;20043;-69
2022/03/28 07:47:28;;;;;;;18.20;12.50;;;;;;;;;;5007010;28;20022;-69
2022/03/28 07:49:54;;;;;;;29.30;14.73;;;;;;;;;;5002737;28;20064;-69
2022/03/28 07:52:21;;;;;;;22.30;13.48;;;;;;;;;;5009257;28;20033;-69
2022/03/28 07:54:48;;;;;;;20.25;12.90;;;;;;;;;;5004235;28;20034;-69
2022/03/28 07:57:15;;;;;;;19.05;11.30;;;;;;;;;;5013708;28;20508;-69
2022/03/28 07:59:42;;;;;;;21.10;13.13;;;;;;;;;;5006949;28;20042;-69
2022/03/28 08:02:08;;;;;;;23.27;13.13;;;;;;;;;;5011440;28;20109;-69
2022/03/28 08:04:34;;;;;;;18.60;11.30;;;;;;;;;;5000065;28;20511;-69
2022/03/28 08:07:03;;;;;;;17.05;10.93;;;;;;;;;;5004632;28;20029;-69
2022/03/28 08:09:29;;;;;;;19.40;11.40;;;;;;;;;;4997176;28;20038;-69
2022/03/28 08:11:56;;;;;;;16.42;10.57;;;;;;;;;;4999755;28;20032;-71
2022/03/28 08:14:23;;;;;;;17.50;10.68;;;;;;;;;;4997074;28;20033;-70
2022/03/28 08:16:49;;;;;;;17.67;11.07;;;;;;;;;;5002892;28;20048;-69
2022/03/28 08:19:15;;;;;;;17.85;11.52;;;;;;;;;;4999347;28;20069;-70
2022/03/28 08:21:41;;;;;;;21.00;11.52;;;;;;;;;;5003262;28;20411;-70
2022/03/28 08:24:07;;;;;;;19.23;10.90;;;;;;;;;;5011694;28;20528;-71
2022/03/28 08:26:34;;;;;;;19.80;11.25;;;;;;;;;;5000305;28;20436;-69
2022/03/28 08:29:00;;;;;;;20.15;10.77;;;;;;;;;;5008875;28;20061;-69
2022/03/28 08:31:28;;;;;;;27.83;12.98;;;;;;;;;;5010201;28;20505;-71
2022/03/28 08:33:54;;;;;;;18.00;11.75;;;;;;;;;;5003838;28;20456;-70
2022/03/28 08:36:20;;;;;;;16.73;12.15;;;;;;;;;;5001265;28;20083;-71
2022/03/28 08:38:46;;;;;;;16.63;11.98;;;;;;;;;;5003869;28;20080;-70
2022/03/28 08:41:14;;;;;;;21.00;13.77;;;;;;;;;;4998326;28;20037;-69
2022/03/28 08:43:41;;;;;;;22.60;13.23;;;;;;;;;;5011557;28;20041;-70
2022/03/28 08:46:08;;;;;;;22.20;12.85;;;;;;;;;;5001507;28;20061;-70
2022/03/28 08:48:37;;;;;;;19.23;11.93;;;;;;;;;;5002240;28;20058;-69
2022/03/28 08:51:03;;;;;;;26.88;13.18;;;;;;;;;;4998790;28;20026;-69
2022/03/28 08:53:29;;;;;;;24.90;13.10;;;;;;;;;;4994031;28;20077;-71
2022/03/28 08:55:56;;;;;;;20.90;12.55;;;;;;;;;;5000133;28;20477;-69
2022/03/28 08:58:22;;;;;;;26.05;13.13;;;;;;;;;;4998444;28;20041;-70
2022/03/28 09:00:48;;;;;;;19.98;12.75;;;;;;;;;;5000541;28;20037;-69
2022/03/28 09:03:14;;;;;;;22.92;12.85;;;;;;;;;;5003188;28;20033;-70
2022/03/28 09:05:41;;;;;;;21.95;12.75;;;;;;;;;;4992640;28;20034;-70
2022/03/28 09:08:09;;;;;;;26.77;14.15;;;;;;;;;;4995524;28;20021;-71
2022/03/28 09:10:36;;;;;;;25.80;12.82;;;;;;;;;;4992903;28;20027;-71
2022/03/28 09:13:05;;;;;;;35.92;14.73;;;;;;;;;;5010766;28;20057;-71
2022/03/28 09:15:45;;;;;;;27.75;13.45;;;;;;;;;;5003323;28;20116;-71
2022/03/28 09:18:23;;;;;;;26.65;13.77;;;;;;;;;;5002645;28;20042;-70
2022/03/28 09:20:50;;;;;;;27.48;14.90;;;;;;;;;;5005629;28;20030;-70
2022/03/28 09:23:33;;;;;;;22.40;12.48;;;;;;;;;;5009759;28;20032;-70
2022/03/28 09:26:05;;;;;;;18.20;11.98;;;;;;;;;;5003889;28;20109;-71
2022/03/28 09:28:45;;;;;;;17.58;11.88;;;;;;;;;;5003747;28;20034;-70
2022/03/28 09:31:18;;;;;;;21.75;11.88;;;;;;;;;;5000581;28;20037;-70
2022/03/28 09:34:06;;;;;;;19.63;11.75;;;;;;;;;;4999460;28;20523;-70
2022/03/28 09:36:48;;;;;;;22.17;13.32;;;;;;;;;;4995489;28;20030;-69
2022/03/28 09:39:17;;;;;;;21.17;12.25;;;;;;;;;;5003682;28;20555;-70
2022/03/28 09:41:44;;;;;;;20.92;13.07;;;;;;;;;;4996659;28;20034;-70
2022/03/28 09:44:11;;;;;;;20.52;13.30;;;;;;;;;;5005283;28;20565;-70
2022/03/28 09:46:37;;;;;;;22.13;12.52;;;;;;;;;;5003360;28;20022;-69
2022/03/28 09:49:04;;;;;;;18.92;12.35;;;;;;;;;;5002056;28;20042;-70
2022/03/28 09:51:32;;;;;;;22.60;11.80;;;;;;;;;;5000119;28;20038;-70
2022/03/28 09:53:59;;;;;;;22.52;13.70;;;;;;;;;;5006341;28;20026;-70
2022/03/28 09:56:25;;;;;;;18.85;12.90;;;;;;;;;;5005996;28;20526;-70
2022/03/28 09:59:04;;;;;;;18.80;12.07;;;;;;;;;;5006993;28;20042;-71
2022/03/28 10:01:40;;;;;;;19.92;12.13;;;;;;;;;;5000832;28;20026;-71
2022/03/28 10:04:08;;;;;;;19.92;11.57;;;;;;;;;;5000950;28;20380;-71
2022/03/28 10:06:35;;;;;;;18.67;12.77;;;;;;;;;;5000569;28;20034;-71
2022/03/28 10:09:02;;;;;;;16.35;10.93;;;;;;;;;;5000089;28;20103;-71
2022/03/28 10:11:28;;;;;;;18.05;11.82;;;;;;;;;;4999292;28;20031;-69
2022/03/28 10:13:55;;;;;;;18.23;12.27;;;;;;;;;;5002038;28;20042;-70
2022/03/28 10:16:21;;;;;;;16.20;12.43;;;;;;;;;;4999592;28;20065;-70
2022/03/28 10:18:50;;;;;;;20.13;12.07;;;;;;;;;;5009255;28;20120;-72
2022/03/28 10:21:19;;;;;;;19.70;12.30;;;;;;;;;;5004612;28;20026;-71
2022/03/28 10:23:48;;;;;;;26.92;13.73;;;;;;;;;;5003854;28;20027;-71
2022/03/28 10:26:16;;;;;;;21.13;11.13;;;;;;;;;;4999940;28;20088;-71
2022/03/28 10:28:59;;;;;;;20.55;11.00;;;;;;;;;;5001498;28;20062;-70
2022/03/28 10:31:25;;;;;;;17.58;11.45;;;;;;;;;;5006636;28;20063;-70
2022/03/28 10:33:52;;;;;;;18.58;10.75;;;;;;;;;;5007710;28;20041;-71
2022/03/28 10:36:23;;;;;;;17.42;9.65;;;;;;;;;;5009546;28;20129;-69
2022/03/28 10:38:52;;;;;;;18.30;10.20;;;;;;;;;;5001877;28;20045;-70
2022/03/28 10:41:20;;;;;;;13.80;9.15;;;;;;;;;;5001082;28;20485;-70
2022/03/28 10:43:47;;;;;;;19.40;10.02;;;;;;;;;;4998021;28;20057;-70
2022/03/28 10:46:13;;;;;;;13.40;8.63;;;;;;;;;;5005532;28;20022;-72
2022/03/28 10:48:44;;;;;;;10.57;7.70;;;;;;;;;;5007612;28;20056;-71
2022/03/28 10:51:12;;;;;;;11.70;8.35;;;;;;;;;;5005689;28;20023;-70
2022/03/28 10:53:47;;;;;;;11.20;7.82;;;;;;;;;;5004507;28;20364;-69
2022/03/28 10:56:13;;;;;;;;;;;;;;;;;;5004663;28;20026;-70
2022/03/28 10:58:44;;;;;;;10.65;7.45;;;;;;;;;;5003095;28;19924;-71
2022/03/28 11:01:13;;;;;;;14.57;7.05;;;;;;;;;;5010166;28;20038;-71
2022/03/28 11:03:42;;;;;;;10.00;6.50;;;;;;;;;;5005306;28;20053;-70
2022/03/28 11:06:08;;;;;;;10.18;6.88;;;;;;;;;;5001962;28;20026;-71
2022/03/28 11:08:36;;;;;;;12.45;6.63;;;;;;;;;;5008786;28;20305;-72
2022/03/28 11:11:25;;;;;;;14.50;8.07;;;;;;;;;;5007917;28;20030;-70
2022/03/28 11:14:00;;;;;;;16.58;8.95;;;;;;;;;;5003373;28;20037;-70
2022/03/28 11:16:26;;;;;;;;;;;;;;;;;;5010979;28;20054;-71
2022/03/28 11:19:11;;;;;;;12.05;7.95;;;;;;;;;;5006560;28;19944;-70
2022/03/28 11:21:55;;;;;;;12.40;8.38;;;;;;;;;;5005132;28;20519;-71
2022/03/28 11:24:40;;;;;;;12.48;8.70;;;;;;;;;;5001181;28;20040;-71
2022/03/28 11:27:06;;;;;;;16.23;9.15;;;;;;;;;;5005783;28;20033;-71
2022/03/28 11:29:32;;;;;;;20.15;10.18;;;;;;;;;;5001577;28;20049;-70
2022/03/28 11:32:04;;;;;;;12.50;8.93;;;;;;;;;;5008027;28;20109;-70
2022/03/28 11:34:30;;;;;;;15.40;9.05;;;;;;;;;;5003914;28;20137;-71
2022/03/28 11:36:58;;;;;;;15.05;9.65;;;;;;;;;;5000328;28;20061;-71
2022/03/28 11:39:26;;;;;;;17.33;9.95;;;;;;;;;;4996571;28;20532;-70
2022/03/28 11:41:53;;;;;;;13.52;9.43;;;;;;;;;;5002310;28;20501;-71
2022/03/28 11:44:19;;;;;;;14.10;9.15;;;;;;;;;;4998776;28;20054;-70
2022/03/28 11:46:53;;;;;;;13.32;9.27;;;;;;;;;;5000817;28;20427;-71
2022/03/28 11:49:19;;;;;;;16.02;9.48;;;;;;;;;;5005097;28;20615;-71
2022/03/28 11:51:45;;;;;;;18.35;10.05;;;;;;;;;;5005091;28;20041;-73
2022/03/28 11:54:19;;;;;;;16.10;10.55;;;;;;;;;;5003193;28;20045;-70
2022/03/28 11:59:41;;;;;;;14.95;10.00;;;;;;;;;;5000101;28;20041;-71
2022/03/28 12:02:08;;;;;;;16.55;10.40;;;;;;;;;;5004616;28;20109;-71
2022/03/28 12:04:35;;;;;;;16.02;9.40;;;;;;;;;;5008741;28;20085;-71
2022/03/28 12:07:02;;;;;;;14.93;9.60;;;;;;;;;;5011279;28;20025;-71
2022/03/28 12:09:28;;;;;;;17.27;9.32;;;;;;;;;;5009616;28;20032;-71
2022/03/28 12:11:55;;;;;;;13.73;9.15;;;;;;;;;;5011482;28;20490;-71
2022/03/28 12:14:22;;;;;;;14.95;9.30;;;;;;;;;;5008471;28;20041;-71
2022/03/28 12:16:49;;;;;;;19.17;9.70;;;;;;;;;;5008838;28;20038;-72
2022/03/28 12:19:18;;;;;;;13.68;9.48;;;;;;;;;;5005041;28;20398;-71
2022/03/28 12:21:44;;;;;;;14.27;9.25;;;;;;;;;;5005425;28;20713;-71
2022/03/28 12:24:10;;;;;;;16.92;10.15;;;;;;;;;;5008923;28;20025;-70
2022/03/28 12:26:46;;;;;;;15.35;10.10;;;;;;;;;;5008406;28;20049;-71
2022/03/28 12:29:12;;;;;;;15.57;9.98;;;;;;;;;;5006972;28;20438;-70
2022/03/28 12:31:42;;;;;;;15.43;10.32;;;;;;;;;;5007065;28;20064;-71
2022/03/28 12:34:09;;;;;;;16.63;10.82;;;;;;;;;;5008617;28;20045;-71
2022/03/28 12:36:36;;;;;;;16.70;10.40;;;;;;;;;;5003835;28;20030;-71
2022/03/28 12:39:06;;;;;;;18.35;11.68;;;;;;;;;;5009215;28;20038;-71
2022/03/28 12:41:43;;;;;;;14.40;10.48;;;;;;;;;;5009561;28;20029;-70
2022/03/28 12:44:13;;;;;;;15.95;10.82;;;;;;;;;;5005226;28;20015;-72
2022/03/28 12:46:40;;;;;;;15.02;11.02;;;;;;;;;;5004640;28;20036;-72
2022/03/28 12:49:14;;;;;;;12.80;9.63;;;;;;;;;;5005935;28;20470;-71
2022/03/28 12:51:40;;;;;;;14.00;10.30;;;;;;;;;;5008595;28;20157;-71
2022/03/28 12:54:08;;;;;;;14.60;10.48;;;;;;;;;;5009090;28;20029;-71
2022/03/28 12:56:44;;;;;;;16.27;11.13;;;;;;;;;;5003801;28;20083;-72
2022/03/28 12:59:14;;;;;;;18.13;11.25;;;;;;;;;;5008721;28;20053;-71
2022/03/28 13:01:40;;;;;;;17.45;11.82;;;;;;;;;;5014724;28;20030;-72
2022/03/28 13:04:20;;;;;;;18.55;12.65;;;;;;;;;;5017025;28;20443;-71
2022/03/28 13:06:50;;;;;;;18.00;11.93;;;;;;;;;;5001174;28;20018;-73
2022/03/28 13:09:22;;;;;;;19.35;11.63;;;;;;;;;;5000777;28;20028;-72
2022/03/28 13:11:49;;;;;;;19.80;12.52;;;;;;;;;;5000281;28;20112;-72
2022/03/28 13:14:27;;;;;;;15.40;11.85;;;;;;;;;;5001017;28;20655;-72
2022/03/28 13:17:08;;;;;;;17.30;11.60;;;;;;;;;;5004105;28;20034;-71
2022/03/28 13:19:38;;;;;;;17.23;11.50;;;;;;;;;;5000728;28;20046;-72
2022/03/28 13:22:05;;;;;;;17.95;12.52;;;;;;;;;;4996907;28;20026;-72
2022/03/28 13:24:31;;;;;;;16.70;11.80;;;;;;;;;;4996263;28;20085;-72
2022/03/28 13:29:52;;;;;;;16.92;13.23;;;;;;;;;;5000127;28;20041;-75
2022/03/28 13:32:18;;;;;;;16.55;11.55;;;;;;;;;;4999752;28;20033;-72
2022/03/28 13:34:45;;;;;;;15.50;12.02;;;;;;;;;;5000070;28;20622;-73
2022/03/28 13:37:11;;;;;;;15.60;12.27;;;;;;;;;;5000722;28;20025;-71
2022/03/28 13:39:37;;;;;;;18.55;12.18;;;;;;;;;;5003940;28;20044;-72
2022/03/28 13:42:04;;;;;;;16.92;11.43;;;;;;;;;;5000554;28;20030;-72
2022/03/28 13:44:30;;;;;;;18.83;11.60;;;;;;;;;;5007243;28;20082;-72
2022/03/28 13:46:56;;;;;;;17.50;11.52;;;;;;;;;;5005713;28;20070;-72
2022/03/28 13:49:23;;;;;;;15.30;11.50;;;;;;;;;;5003106;28;20033;-71
2022/03/28 13:51:49;;;;;;;15.15;11.50;;;;;;;;;;5002971;28;20049;-72
2022/03/28 13:54:16;;;;;;;15.60;11.63;;;;;;;;;;4996356;28;20026;-72
2022/03/28 13:56:42;;;;;;;16.02;11.52;;;;;;;;;;4998368;28;20069;-72
2022/03/28 13:59:10;;;;;;;14.50;10.93;;;;;;;;;;4999883;28;20030;-71
2022/03/28 14:01:38;;;;;;;14.90;11.13;;;;;;;;;;5006924;28;20033;-73
2022/03/28 14:04:08;;;;;;;12.90;10.68;;;;;;;;;;5001208;28;20022;-71
2022/03/28 14:06:35;;;;;;;15.63;12.18;;;;;;;;;;5003466;28;20753;-70
2022/03/28 14:09:01;;;;;;;16.92;11.85;;;;;;;;;;5000242;28;20076;-71
2022/03/28 14:11:27;;;;;;;17.25;11.77;;;;;;;;;;5004449;28;20050;-72
2022/03/28 14:13:54;;;;;;;13.82;11.02;;;;;;;;;;5003994;28;20034;-71
2022/03/28 14:16:20;;;;;;;15.05;10.68;;;;;;;;;;5006824;28;20420;-73
2022/03/28 14:18:50;;;;;;;16.33;10.93;;;;;;;;;;5004414;28;20527;-72
2022/03/28 14:21:17;;;;;;;13.40;10.43;;;;;;;;;;5004081;28;20184;-72
2022/03/28 14:23:44;;;;;;;13.90;10.57;;;;;;;;;;4997440;28;20208;-70
2022/03/28 14:26:10;;;;;;;14.73;9.80;;;;;;;;;;4997985;28;20034;-73